Wharton, TX

8:04 PM CDT on August 29, 2014 (GMT -0500)
Houston | Change Station
CLOSE
Current Station
Airport
Location: Houston,
Elevation: 167 ft
Nearby Weather Stations

Elev 167 ft 29.81 °N, 95.90 °W | Updated 9 minutes ago

Mostly Cloudy
Mostly Cloudy
81 °F
Feels Like 85 °F
N
14
Wind Variable Wind from East

Today
High -- | Low -- °F
--% Chance of Precip.
Yesterday
High -- | Low -- °F
Precip. -- in
7:00 AM 7:49 PM
Waxing Crescent, 18% visible
Pressure 29.86 in
Visibility 10.0 miles
Clouds Few 1900 ft
Scattered Clouds 4000 ft
Mostly Cloudy 4600 ft
Heat Index 85 °F
Dew Point 73 °F
Humidity 79%
Rainfall 0.00 in
Snow Depth Not available.
UV 0 out of 12
Pollen 6.90 out of 12
Air Quality Not available.
Flu Activity Not available.
METAR KTME 300055Z AUTO 10012KT 10SM FEW019 SCT040 BKN046 27/23 A2986 RMK AO2

More Conditions Fewer Conditions

Pressure 29.86 in
Visibility 10.0 miles
Clouds Few 1900 ft
Scattered Clouds 4000 ft
Mostly Cloudy 4600 ft
Heat Index 85 °F
Dew Point 73 °F
Humidity 79%
Rainfall 0.00 in
Snow Depth Not available.
UV 0 out of 12
Pollen 6.90 out of 12
Air Quality Not available.
Flu Activity Not available.
METAR KTME 300055Z AUTO 10012KT 10SM FEW019 SCT040 BKN046 27/23 A2986 RMK AO2

More Conditions Fewer Conditions

10-Day Weather Forecast

Almanac

Astronomy

Aug. 29, 2014 Rise Set
Actual Time 7:00 AM CDT 7:49 PM CDT
Civil Twilight 6:35 AM CDT 8:13 PM CDT
Nautical Twilight 6:07 AM CDT 8:42 PM CDT
Astronomical Twilight 5:37 AM CDT 9:11 PM CDT
Moon 10:30 AM CDT (8/29) 10:10 PM CDT (8/29)
Length of Visible Light 13h 37m
Length of Day
12h 49m
Tomorrow will be 1m 40s shorter.
Waxing Crescent, 18% of the Moon is Illuminated
Today
Waxing Crescent
Sep 2
First Quarter
Sep 8
Full
Sep 15
Last Quarter
Sep 24
New

Today's Extremes

State Highs State Lows

Community

WunderPhotos

Upload Photos

1,748,394 photos uploaded!

Nearby

Snow Depth

Station Depth Elevation
No new snow has been reported.

Earthquake Activity

City Distance Mag. Time & Date
No recent earthquake activity has been reported nearby.
Minimum magnitude displayed is 2.5.

Coastal Water Temperatures

Place Temperature
No Stations Reporting

Nearby Weather Stations